Time;durP1;ratioP1;P1;durP2;ratioP2;P2;SDS_P1;SDS_P2;PMS_P1;PMS_P2;Temp;Humidity;BMP_temperature;BMP_pressure;BME280_temperature;BME280_humidity;BME280_pressure;Samples;Min_cycle;Max_cycle;Signal;HPM_P1;HPM_P2
2022/01/28 00:01:49;;;;;;;2.72;1.48;;;9.90;80.70;;;;;;5073783;28;20098;-57
2022/01/28 00:04:17;;;;;;;4.22;1.52;;;9.90;80.70;;;;;;5055335;28;20572;-55
2022/01/28 00:06:42;;;;;;;4.35;1.30;;;9.90;80.70;;;;;;5072848;28;20485;-57
2022/01/28 00:09:08;;;;;;;2.95;1.60;;;9.90;80.80;;;;;;5073219;28;20045;-56
2022/01/28 00:11:34;;;;;;;4.70;1.30;;;9.90;80.80;;;;;;5073454;28;20037;-57
2022/01/28 00:17:29;;;;;;;4.15;1.30;;;9.90;80.70;;;;;;5010585;28;20077;-56
2022/01/28 00:20:15;;;;;;;5.00;1.67;;;9.90;80.80;;;;;;5011490;28;20045;-55
2022/01/28 00:38:48;;;;;;;4.00;1.38;;;9.90;80.80;;;;;;5009435;28;20109;-57
2022/01/28 00:41:15;;;;;;;3.72;1.30;;;9.90;80.80;;;;;;4994105;28;20100;-54
2022/01/28 00:43:41;;;;;;;4.18;1.33;;;9.90;80.80;;;;;;5010510;28;20046;-54
2022/01/28 00:46:07;;;;;;;3.03;1.30;;;9.90;80.80;;;;;;5009784;28;20457;-55
2022/01/28 00:48:33;;;;;;;3.80;1.67;;;9.90;80.80;;;;;;5010475;28;20050;-58
2022/01/28 00:50:58;;;;;;;5.15;1.95;;;9.90;80.80;;;;;;5010270;28;20501;-56
2022/01/28 00:53:24;;;;;;;3.15;1.42;;;9.90;80.80;;;;;;5030881;28;20057;-56
2022/01/28 00:55:49;;;;;;;4.25;1.40;;;9.90;80.80;;;;;;5072367;28;20040;-56
2022/01/28 00:58:15;;;;;;;3.80;1.40;;;9.90;80.80;;;;;;5071275;28;20396;-58
2022/01/28 01:00:41;;;;;;;3.20;1.30;;;9.90;80.80;;;;;;5054453;28;20054;-58
2022/01/28 01:03:07;;;;;;;4.03;1.42;;;9.90;80.80;;;;;;5072080;28;20044;-59
2022/01/28 01:05:34;;;;;;;3.83;1.40;;;9.90;80.80;;;;;;5072175;28;20036;-57
2022/01/28 01:08:01;;;;;;;2.95;1.15;;;9.90;81.10;;;;;;5071833;28;20124;-56
2022/01/28 01:10:28;;;;;;;3.47;1.48;;;9.90;80.80;;;;;;5072270;28;20040;-55
2022/01/28 01:12:54;;;;;;;5.90;1.77;;;9.90;80.80;;;;;;5072249;28;20055;-57
2022/01/28 01:15:24;;;;;;;3.70;1.40;;;9.90;80.70;;;;;;5071246;28;20044;-56
2022/01/28 01:23:04;;;;;;;2.78;1.40;;;9.90;80.70;;;;;;5072007;28;20091;-56
2022/01/28 01:25:30;;;;;;;2.53;1.30;;;9.90;80.80;;;;;;5071523;28;20381;-57
2022/01/28 01:27:58;;;;;;;2.20;1.30;;;9.90;81.40;;;;;;5072211;28;20040;-55
2022/01/28 01:30:27;;;;;;;3.13;1.33;;;9.90;80.80;;;;;;5071493;28;20055;-56
2022/01/28 01:32:52;;;;;;;3.95;1.20;;;9.90;80.70;;;;;;5071798;28;20172;-54
2022/01/28 01:35:18;;;;;;;4.03;1.35;;;9.90;80.70;;;;;;5071345;28;20116;-55
2022/01/28 01:37:44;;;;;;;3.83;1.73;;;9.90;80.80;;;;;;5071955;28;20044;-57
2022/01/28 01:40:10;;;;;;;4.35;1.27;;;9.90;80.80;;;;;;5071512;28;20036;-51
2022/01/28 01:42:51;;;;;;;4.32;1.52;;;9.90;81.40;;;;;;5070433;28;20040;-56
2022/01/28 01:53:12;;;;;;;3.47;1.20;;;9.90;80.80;;;;;;5008980;28;20050;-58
2022/01/28 01:55:38;;;;;;;4.60;1.35;;;9.90;80.80;;;;;;5009559;28;20064;-53
2022/01/28 01:58:04;;;;;;;6.03;1.50;;;9.90;80.80;;;;;;5008472;28;20104;-55
2022/01/28 02:00:29;;;;;;;4.88;1.58;;;9.90;80.80;;;;;;5009489;28;20064;-56
2022/01/28 02:02:55;;;;;;;3.67;1.90;;;9.90;80.80;;;;;;5009239;28;20437;-56
2022/01/28 02:05:20;;;;;;;3.78;1.65;;;9.90;80.80;;;;;;5009110;28;20050;-56
2022/01/28 02:07:47;;;;;;;4.43;1.15;;;9.90;80.80;;;;;;5009453;28;20124;-55
2022/01/28 02:10:14;;;;;;;3.80;1.83;;;9.90;80.80;;;;;;5009187;28;20120;-53
2022/01/28 02:12:49;;;;;;;2.33;1.10;;;10.00;81.50;;;;;;5009135;28;20042;-56
2022/01/28 02:15:15;;;;;;;4.72;1.45;;;9.90;81.40;;;;;;5008411;28;20064;-58
2022/01/28 02:17:44;;;;;;;2.30;1.25;;;9.90;80.80;;;;;;5008851;28;20057;-56
2022/01/28 02:20:28;;;;;;;5.10;1.30;;;9.90;80.80;;;;;;5008944;28;20045;-56
2022/01/28 02:22:54;;;;;;;6.78;1.48;;;9.90;80.80;;;;;;5009059;28;20066;-57
2022/01/28 02:25:22;;;;;;;3.55;1.13;;;9.90;80.80;;;;;;5008980;28;20141;-57
2022/01/28 02:27:48;;;;;;;2.17;1.10;;;9.90;80.80;;;;;;5009319;28;20490;-57
2022/01/28 02:30:14;;;;;;;1.98;1.25;;;9.90;80.80;;;;;;5028673;28;20136;-55
2022/01/28 02:32:39;;;;;;;2.72;1.08;;;9.90;80.80;;;;;;5051090;28;20091;-54
2022/01/28 02:35:05;;;;;;;3.08;1.30;;;9.90;80.80;;;;;;5065426;28;20083;-55
2022/01/28 02:37:31;;;;;;;3.47;1.15;;;9.90;80.80;;;;;;5071353;28;20062;-54
2022/01/28 02:39:57;;;;;;;2.70;1.45;;;9.90;80.80;;;;;;5071506;28;20102;-54
2022/01/28 02:42:38;;;;;;;3.28;1.42;;;9.90;80.80;;;;;;5071069;28;20080;-55
2022/01/28 02:45:04;;;;;;;4.20;1.33;;;9.90;80.80;;;;;;5070480;28;20385;-60
2022/01/28 02:47:34;;;;;;;3.08;1.30;;;9.90;80.80;;;;;;5070641;28;20052;-54
2022/01/28 02:49:59;;;;;;;4.53;1.52;;;9.90;80.80;;;;;;5071155;28;20162;-55
2022/01/28 02:52:36;;;;;;;1.73;0.95;;;9.90;80.80;;;;;;5071332;28;20474;-53
2022/01/28 02:55:08;;;;;;;2.70;1.10;;;9.90;80.80;;;;;;5070358;28;20048;-55
2022/01/28 02:57:37;;;;;;;4.03;1.27;;;9.90;80.90;;;;;;5070919;28;20051;-51
2022/01/28 03:00:04;;;;;;;4.38;1.60;;;9.90;80.90;;;;;;5070755;28;20056;-55
2022/01/28 03:02:29;;;;;;;2.90;1.13;;;9.90;80.80;;;;;;5070018;28;20049;-55
2022/01/28 03:07:29;;;;;;;2.67;1.38;;;9.90;80.80;;;;;;5070981;28;20045;-57
2022/01/28 03:12:37;;;;;;;2.55;1.33;;;9.90;80.80;;;;;;5074419;28;20560;-58
2022/01/28 03:15:06;;;;;;;3.22;1.20;;;9.90;80.80;;;;;;5073839;28;20111;-54
2022/01/28 03:20:15;;;;;;;2.83;1.35;;;9.90;80.80;;;;;;5074006;28;20053;-56
2022/01/28 03:22:41;;;;;;;4.22;1.38;;;9.90;80.80;;;;;;5074721;28;20056;-54
2022/01/28 03:25:07;;;;;;;5.10;1.60;;;9.90;80.80;;;;;;5073745;28;20044;-55
2022/01/28 03:27:54;;;;;;;3.33;1.25;;;9.90;80.80;;;;;;5073847;28;20045;-54
2022/01/28 03:30:20;;;;;;;4.43;1.77;;;9.90;80.80;;;;;;5054021;28;20404;-56
2022/01/28 03:32:46;;;;;;;1.95;1.27;;;9.90;81.40;;;;;;5053967;28;20044;-51
2022/01/28 03:35:14;;;;;;;3.20;1.08;;;9.90;80.80;;;;;;5053376;28;20049;-58
2022/01/28 03:37:40;;;;;;;4.45;1.45;;;9.90;80.70;;;;;;5054207;28;20076;-56
2022/01/28 03:40:07;;;;;;;3.60;0.90;;;9.90;80.80;;;;;;5068138;28;20504;-58
2022/01/28 03:42:34;;;;;;;1.40;1.05;;;9.90;80.70;;;;;;5074179;28;20045;-59
2022/01/28 03:44:59;;;;;;;3.17;1.25;;;9.90;80.80;;;;;;5073550;28;20498;-56
2022/01/28 03:47:25;;;;;;;1.50;0.98;;;9.90;80.70;;;;;;5073630;28;20105;-58
2022/01/28 03:49:51;;;;;;;2.65;1.02;;;9.90;80.80;;;;;;5073076;28;20032;-58
2022/01/28 03:52:16;;;;;;;2.67;1.35;;;9.90;80.80;;;;;;5073314;28;20037;-58
2022/01/28 03:54:42;;;;;;;3.55;1.27;;;9.90;80.70;;;;;;5073376;28;20056;-55
2022/01/28 03:57:08;;;;;;;6.68;1.25;;;9.90;80.70;;;;;;5055313;28;20712;-52
2022/01/28 03:59:34;;;;;;;3.75;1.35;;;9.90;80.70;;;;;;5073239;28;20079;-54
2022/01/28 04:02:00;;;;;;;2.70;1.23;;;9.90;80.70;;;;;;5073487;28;20041;-54
2022/01/28 04:12:38;;;;;;;4.78;1.13;;;9.90;80.70;;;;;;5073570;28;20045;-57
2022/01/28 04:17:50;;;;;;;2.25;1.13;;;9.90;80.70;;;;;;5073175;28;20056;-56
2022/01/28 04:20:16;;;;;;;3.42;1.40;;;9.90;80.70;;;;;;5071029;28;20075;-57
2022/01/28 04:22:42;;;;;;;3.15;1.35;;;9.90;80.70;;;;;;5073283;28;20037;-54
2022/01/28 04:25:08;;;;;;;2.72;1.30;;;9.90;80.70;;;;;;5072977;28;20508;-56
2022/01/28 04:27:34;;;;;;;2.70;1.23;;;9.90;80.70;;;;;;5073305;28;20040;-56
2022/01/28 04:29:59;;;;;;;1.65;0.90;;;9.90;80.70;;;;;;5072857;28;20045;-55
2022/01/28 04:32:27;;;;;;;3.47;1.20;;;9.90;80.70;;;;;;5073021;28;20451;-57
2022/01/28 04:34:54;;;;;;;2.15;1.30;;;9.90;80.70;;;;;;5072604;28;20055;-55
2022/01/28 04:37:30;;;;;;;2.67;1.02;;;9.90;80.70;;;;;;5072553;28;20082;-57
2022/01/28 04:40:04;;;;;;;3.72;1.38;;;9.90;80.70;;;;;;5073263;28;20053;-55
2022/01/28 04:45:29;;;;;;;3.20;1.60;;;9.90;80.70;;;;;;5072262;28;20048;-54
2022/01/28 04:48:14;;;;;;;1.73;1.02;;;9.90;80.70;;;;;;5072857;28;20071;-57
2022/01/28 04:50:55;;;;;;;1.58;1.10;;;9.90;80.70;;;;;;5072466;28;20094;-58
2022/01/28 04:58:40;;;;;;;2.88;1.38;;;9.90;80.70;;;;;;5071993;28;20412;-59
2022/01/28 05:11:23;;;;;;;2.60;1.15;;;9.90;80.70;;;;;;5072524;28;20059;-57
2022/01/28 05:16:53;;;;;;;3.22;1.13;;;9.90;80.70;;;;;;5072430;28;20101;-56
2022/01/28 05:27:19;;;;;;;1.92;1.23;;;9.90;80.80;;;;;;5071434;28;20071;-55
2022/01/28 05:29:44;;;;;;;1.73;1.00;;;9.90;80.70;;;;;;5071955;28;20485;-57
2022/01/28 05:32:11;;;;;;;2.40;1.30;;;9.90;80.70;;;;;;5071417;28;20048;-56
2022/01/28 05:34:38;;;;;;;2.03;1.10;;;9.90;80.70;;;;;;5071666;28;20056;-54
2022/01/28 05:37:04;;;;;;;1.80;0.80;;;9.90;80.70;;;;;;5071095;28;20477;-57
2022/01/28 05:39:30;;;;;;;2.38;1.33;;;9.90;80.80;;;;;;5071618;28;20044;-58
2022/01/28 05:41:55;;;;;;;3.05;1.30;;;10.00;80.80;;;;;;5071706;28;20408;-55
2022/01/28 05:44:22;;;;;;;3.40;1.20;;;9.90;80.80;;;;;;5071536;28;20044;-58
2022/01/28 05:46:49;;;;;;;2.70;1.10;;;9.90;80.80;;;;;;5071176;28;20048;-55
2022/01/28 05:49:15;;;;;;;2.65;1.10;;;9.90;80.80;;;;;;5071430;28;20044;-57
2022/01/28 05:51:42;;;;;;;2.22;1.30;;;9.90;80.80;;;;;;5071611;28;20055;-57
2022/01/28 05:54:07;;;;;;;2.38;1.10;;;9.90;80.80;;;;;;5071262;28;20085;-51
2022/01/28 05:56:33;;;;;;;1.88;1.20;;;9.90;80.70;;;;;;5071431;28;20431;-58
2022/01/28 05:58:59;;;;;;;3.38;1.15;;;9.90;80.70;;;;;;5071313;28;20606;-58
2022/01/28 06:01:25;;;;;;;3.97;1.38;;;9.90;80.70;;;;;;5071344;28;20044;-57
2022/01/28 06:03:51;;;;;;;4.55;1.90;;;9.90;80.80;;;;;;5071389;28;20044;-52
2022/01/28 06:06:21;;;;;;;2.60;1.27;;;9.90;80.70;;;;;;5070968;28;20137;-54
2022/01/28 06:08:55;;;;;;;2.38;1.20;;;9.90;80.70;;;;;;5071082;28;20505;-58
2022/01/28 06:11:22;;;;;;;3.92;1.25;;;9.90;80.70;;;;;;5070885;28;20040;-57
2022/01/28 06:13:48;;;;;;;4.22;1.60;;;9.90;80.80;;;;;;5071151;28;20094;-57
2022/01/28 06:16:15;;;;;;;3.33;1.20;;;9.90;80.80;;;;;;5071133;28;20083;-56
2022/01/28 06:18:42;;;;;;;1.95;0.90;;;9.90;80.80;;;;;;5071048;28;20076;-59
2022/01/28 06:21:08;;;;;;;1.88;0.90;;;9.90;80.80;;;;;;5071173;28;20040;-53
2022/01/28 06:23:34;;;;;;;3.42;1.23;;;9.90;80.70;;;;;;5070892;28;20044;-53
2022/01/28 06:26:01;;;;;;;3.35;1.00;;;9.90;80.80;;;;;;5071042;28;20040;-55
2022/01/28 06:28:26;;;;;;;2.70;1.17;;;9.90;80.70;;;;;;5070426;28;20052;-57
2022/01/28 06:30:52;;;;;;;2.65;0.90;;;9.90;80.80;;;;;;5071353;28;20036;-54
2022/01/28 06:33:18;;;;;;;2.38;1.20;;;9.90;80.80;;;;;;5071151;28;20048;-55
2022/01/28 06:35:45;;;;;;;2.92;1.17;;;9.90;80.70;;;;;;5058507;28;20044;-54
2022/01/28 06:38:11;;;;;;;0.90;0.80;;;9.90;80.70;;;;;;5033938;28;20052;-57
2022/01/28 06:40:38;;;;;;;3.15;0.95;;;9.90;80.70;;;;;;5071355;28;20082;-55
2022/01/28 06:43:07;;;;;;;3.20;1.27;;;9.90;80.80;;;;;;5071751;28;20511;-58
2022/01/28 06:45:32;;;;;;;2.53;1.10;;;9.90;80.80;;;;;;5062901;28;20033;-54
2022/01/28 06:47:58;;;;;;;2.97;0.90;;;9.90;80.70;;;;;;5054461;28;20045;-55
2022/01/28 06:50:23;;;;;;;2.45;1.02;;;9.90;80.70;;;;;;5069764;28;20045;-55
2022/01/28 06:52:49;;;;;;;6.07;1.35;;;9.90;80.80;;;;;;5075050;28;20048;-54
2022/01/28 06:55:16;;;;;;;2.03;1.30;;;9.90;80.80;;;;;;5074581;28;20037;-57
2022/01/28 06:57:42;;;;;;;3.70;1.52;;;9.90;80.80;;;;;;5074535;28;20115;-53
2022/01/28 07:00:10;;;;;;;6.13;1.50;;;9.90;80.80;;;;;;5074200;28;20046;-56
2022/01/28 07:02:36;;;;;;;3.65;1.15;;;9.90;80.70;;;;;;5074738;28;20111;-55
2022/01/28 07:05:02;;;;;;;3.22;1.20;;;9.90;80.70;;;;;;5074535;28;20044;-56
2022/01/28 07:07:28;;;;;;;6.00;1.80;;;9.90;80.70;;;;;;5074318;28;20128;-54
2022/01/28 07:09:54;;;;;;;2.78;1.02;;;9.90;80.70;;;;;;5056144;28;20127;-56
2022/01/28 07:12:20;;;;;;;3.33;1.48;;;9.90;80.70;;;;;;5073369;28;20087;-54
2022/01/28 07:14:47;;;;;;;2.80;1.23;;;9.90;80.70;;;;;;5073530;28;20056;-53
2022/01/28 07:17:12;;;;;;;2.83;1.48;;;9.90;80.70;;;;;;5073220;28;20072;-50
2022/01/28 07:19:38;;;;;;;3.70;1.10;;;9.90;80.70;;;;;;5073796;28;20091;-56
2022/01/28 07:22:04;;;;;;;4.30;1.30;;;9.90;80.70;;;;;;5073874;28;20045;-56
2022/01/28 07:24:30;;;;;;;4.60;1.25;;;9.90;80.70;;;;;;5073839;28;20515;-55
2022/01/28 07:26:56;;;;;;;2.88;1.42;;;9.90;80.70;;;;;;5074469;28;20051;-53
2022/01/28 07:29:27;;;;;;;2.75;1.30;;;9.90;80.70;;;;;;5073528;28;20055;-54
2022/01/28 07:31:52;;;;;;;3.38;1.98;;;9.90;80.70;;;;;;5074361;28;20094;-51
2022/01/28 07:34:18;;;;;;;4.57;1.50;;;9.90;80.70;;;;;;5074052;28;20048;-56
2022/01/28 07:36:44;;;;;;;3.00;1.20;;;9.90;80.70;;;;;;5074192;28;20080;-55
2022/01/28 07:39:09;;;;;;;3.55;1.30;;;9.90;80.70;;;;;;5072889;28;20528;-58
2022/01/28 07:41:35;;;;;;;24.60;5.90;;;9.90;80.70;;;;;;5073758;28;20040;-59
2022/01/28 07:44:01;;;;;;;10.52;3.17;;;9.90;78.60;;;;;;5073924;28;20049;-56
2022/01/28 07:46:27;;;;;;;12.88;3.47;;;9.80;77.80;;;;;;5074144;28;20036;-57
2022/01/28 07:48:52;;;;;;;16.50;3.92;;;9.70;78.30;;;;;;5074171;28;20052;-54
2022/01/28 07:51:18;;;;;;;15.55;3.95;;;9.70;78.50;;;;;;5073274;28;20504;-56
2022/01/28 07:53:44;;;;;;;12.57;3.75;;;9.90;78.80;;;;;;5073841;28;20041;-57
2022/01/28 07:56:12;;;;;;;13.32;3.58;;;9.70;78.80;;;;;;5073158;28;20075;-57
2022/01/28 07:58:37;;;;;;;12.63;3.50;;;9.70;78.90;;;;;;5073426;28;20516;-57
2022/01/28 08:01:03;;;;;;;13.30;3.80;;;9.70;79.10;;;;;;5073401;28;20041;-49
2022/01/28 08:03:29;;;;;;;9.43;3.17;;;9.70;79.10;;;;;;5073930;28;20558;-56
2022/01/28 08:05:54;;;;;;;14.55;3.85;;;9.80;79.30;;;;;;5073784;28;20040;-56
2022/01/28 08:08:21;;;;;;;11.43;4.20;;;9.70;79.30;;;;;;5055139;28;20064;-57
2022/01/28 08:10:47;;;;;;;10.32;3.15;;;9.80;79.40;;;;;;5072855;28;20111;-54
2022/01/28 08:13:13;;;;;;;9.00;3.20;;;9.80;79.40;;;;;;5072840;28;20037;-58
2022/01/28 08:15:40;;;;;;;10.18;3.00;;;9.80;79.50;;;;;;5073436;28;20059;-53
2022/01/28 08:18:06;;;;;;;9.00;2.90;;;9.80;79.50;;;;;;5073238;28;20384;-57
2022/01/28 08:20:33;;;;;;;8.73;3.80;;;9.80;79.60;;;;;;5073248;28;20037;-54
2022/01/28 08:23:00;;;;;;;8.73;2.60;;;9.80;79.60;;;;;;5072541;28;20142;-57
2022/01/28 08:25:27;;;;;;;15.00;3.17;;;9.80;79.60;;;;;;5073039;28;20445;-56
2022/01/28 08:27:53;;;;;;;7.68;2.88;;;9.80;79.70;;;;;;5072961;28;20044;-57
2022/01/28 08:30:24;;;;;;;7.50;3.08;;;9.80;79.70;;;;;;5072652;28;20060;-55
2022/01/28 08:32:50;;;;;;;10.60;2.80;;;9.80;79.80;;;;;;5072475;28;20043;-57
2022/01/28 08:35:18;;;;;;;8.32;3.15;;;9.80;79.80;;;;;;5072829;28;20123;-57
2022/01/28 08:37:44;;;;;;;10.48;3.22;;;9.80;79.80;;;;;;5073097;28;20044;-56
2022/01/28 08:40:12;;;;;;;10.75;3.00;;;9.80;79.80;;;;;;5072735;28;20045;-57
2022/01/28 08:42:37;;;;;;;10.20;3.10;;;9.80;79.80;;;;;;5071914;28;20558;-54
2022/01/28 08:45:04;;;;;;;8.38;3.17;;;9.80;79.90;;;;;;5072519;28;20080;-57
2022/01/28 08:47:30;;;;;;;12.65;2.72;;;9.80;79.80;;;;;;5072851;28;20037;-58
2022/01/28 08:49:56;;;;;;;7.57;2.88;;;9.90;79.90;;;;;;5072896;28;20090;-57
2022/01/28 08:52:21;;;;;;;8.65;2.85;;;9.90;79.90;;;;;;5072203;28;20504;-55
2022/01/28 08:54:47;;;;;;;19.08;4.65;;;9.80;79.90;;;;;;5072283;28;20067;-58
2022/01/28 08:57:13;;;;;;;15.23;4.20;;;9.80;77.40;;;;;;5071923;28;20040;-58
2022/01/28 08:59:40;;;;;;;13.38;4.47;;;9.70;77.50;;;;;;5072192;28;20054;-57
2022/01/28 09:02:06;;;;;;;15.88;4.30;;;9.60;77.90;;;;;;5072167;28;20055;-55
2022/01/28 09:04:31;;;;;;;10.27;3.75;;;9.50;78.00;;;;;;5072429;28;20557;-57
2022/01/28 09:06:57;;;;;;;19.90;4.32;;;9.50;78.20;;;;;;5071448;28;20052;-57
2022/01/28 09:09:23;;;;;;;14.15;4.10;;;9.60;78.40;;;;;;5072668;28;20044;-57
2022/01/28 09:14:24;;;;;;;12.20;3.78;;;9.60;78.60;;;;;;5072261;28;20453;-58
2022/01/28 09:16:52;;;;;;;16.55;3.60;;;9.60;78.70;;;;;;5072054;28;20374;-59
2022/01/28 09:19:18;;;;;;;13.55;4.25;;;9.60;78.80;;;;;;5071897;28;20048;-58
2022/01/28 09:21:44;;;;;;;18.15;5.25;;;9.60;78.90;;;;;;5071959;28;20443;-59
2022/01/28 09:24:10;;;;;;;15.95;4.18;;;9.60;77.60;;;;;;5071895;28;20068;-60
2022/01/28 09:26:36;;;;;;;12.90;3.50;;;9.50;77.80;;;;;;5071632;28;20063;-59
2022/01/28 09:29:03;;;;;;;16.52;4.25;;;9.50;78.10;;;;;;5071353;28;20036;-61
2022/01/28 09:31:28;;;;;;;15.52;4.43;;;9.50;78.20;;;;;;5053734;28;20131;-60
2022/01/28 09:33:54;;;;;;;15.93;4.55;;;9.50;78.30;;;;;;5072256;28;20074;-61
2022/01/28 09:36:19;;;;;;;15.05;3.88;;;9.50;78.40;;;;;;5071716;28;20130;-59
2022/01/28 09:38:45;;;;;;;12.50;4.18;;;9.60;78.50;;;;;;5071444;28;20048;-59
2022/01/28 09:41:11;;;;;;;16.23;5.00;;;9.60;78.60;;;;;;5071391;28;20044;-60
2022/01/28 09:43:37;;;;;;;14.55;4.18;;;9.60;78.70;;;;;;5071282;28;20045;-59
2022/01/28 09:46:03;;;;;;;12.25;3.95;;;9.60;78.70;;;;;;5071279;28;20044;-59
2022/01/28 09:48:30;;;;;;;14.27;4.03;;;9.60;78.80;;;;;;5071513;28;20044;-59
2022/01/28 09:51:01;;;;;;;15.05;4.05;;;9.60;78.80;;;;;;5071706;28;20036;-61
2022/01/28 09:53:27;;;;;;;11.75;3.22;;;9.70;78.90;;;;;;5071648;28;20683;-60
2022/01/28 09:55:52;;;;;;;13.88;3.72;;;9.70;79.00;;;;;;5071575;28;20072;-59
2022/01/28 09:58:18;;;;;;;9.35;3.80;;;9.70;79.00;;;;;;5070577;28;20083;-58
2022/01/28 10:00:44;;;;;;;9.55;3.20;;;9.70;79.10;;;;;;5071422;28;20041;-60
2022/01/28 10:03:12;;;;;;;10.85;3.42;;;9.70;79.10;;;;;;5071345;28;20040;-60
2022/01/28 10:05:50;;;;;;;12.48;3.05;;;9.70;79.20;;;;;;5052946;28;20049;-59
2022/01/28 10:08:24;;;;;;;8.52;3.30;;;9.70;79.20;;;;;;5071143;28;20048;-60
2022/01/28 10:10:50;;;;;;;12.98;3.13;;;9.70;79.20;;;;;;5071204;28;20048;-59
2022/01/28 10:13:24;;;;;;;12.15;3.38;;;9.70;79.20;;;;;;5070803;28;20052;-59
2022/01/28 10:15:59;;;;;;;11.38;3.35;;;9.70;79.30;;;;;;5071407;28;20060;-58
2022/01/28 10:18:41;;;;;;;11.37;2.83;;;9.70;79.30;;;;;;5070521;28;20041;-60
2022/01/28 10:21:42;;;;;;;11.68;3.58;;;9.70;79.30;;;;;;5070816;28;20313;-59
2022/01/28 10:24:12;;;;;;;11.30;3.08;;;9.80;79.50;;;;;;5071180;28;20044;-59
2022/01/28 10:26:45;;;;;;;12.15;3.35;;;9.70;79.40;;;;;;5071276;28;20045;-59
2022/01/28 10:29:14;;;;;;;26.38;5.85;;;9.70;79.40;;;;;;5070726;28;20080;-58
2022/01/28 10:31:48;;;;;;;29.63;6.50;;;9.70;77.30;;;;;;5071034;28;20040;-58
2022/01/28 10:34:18;;;;;;;22.48;5.72;;;9.40;74.70;;;;;;5067987;28;20082;-54
2022/01/28 10:36:46;;;;;;;22.52;5.35;;;9.20;76.50;;;;;;5070408;28;20071;-51
2022/01/28 10:39:14;;;;;;;21.60;5.45;;;9.20;77.20;;;;;;5069917;28;20052;-49
2022/01/28 10:41:50;;;;;;;26.95;5.60;;;9.10;77.50;;;;;;5070383;28;20396;-50
2022/01/28 10:44:17;;;;;;;24.77;4.80;;;9.20;77.80;;;;;;5069955;28;20048;-47
2022/01/28 10:46:51;;;;;;;20.05;4.45;;;9.20;78.00;;;;;;5070453;28;20202;-49
2022/01/28 10:49:17;;;;;;;19.02;5.13;;;9.20;78.10;;;;;;5070111;28;20488;-46
2022/01/28 10:51:44;;;;;;;18.27;4.82;;;9.20;78.90;;;;;;5070040;28;20044;-49
2022/01/28 10:54:21;;;;;;;21.65;5.32;;;9.30;78.40;;;;;;5085805;28;20048;-48
2022/01/28 10:56:54;;;;;;;12.35;3.88;;;9.30;78.50;;;;;;5076886;28;20076;-49
2022/01/28 10:59:23;;;;;;;15.77;4.63;;;9.40;78.60;;;;;;5069663;28;20496;-53
2022/01/28 11:01:49;;;;;;;13.95;3.92;;;9.40;78.70;;;;;;5070283;28;20056;-50
2022/01/28 11:04:18;;;;;;;12.50;4.15;;;9.40;78.70;;;;;;5069757;28;20127;-47
2022/01/28 11:06:45;;;;;;;15.40;4.40;;;9.40;78.80;;;;;;5070358;28;20183;-52
2022/01/28 11:09:13;;;;;;;13.55;3.92;;;9.40;78.90;;;;;;5070257;28;20056;-49
2022/01/28 11:11:39;;;;;;;11.90;3.92;;;9.40;78.90;;;;;;5052842;28;20048;-50
2022/01/28 11:14:05;;;;;;;14.38;4.13;;;9.50;79.00;;;;;;5070143;28;20057;-60
2022/01/28 11:16:32;;;;;;;10.15;4.15;;;9.50;79.00;;;;;;5070862;28;20102;-50
2022/01/28 11:18:59;;;;;;;14.65;4.38;;;9.50;79.00;;;;;;5070680;28;20049;-56
2022/01/28 11:22:21;;;;;;;11.70;3.78;;;9.60;79.20;;;;;;5070888;28;20047;-56
2022/01/28 11:25:08;;;;;;;16.23;3.75;;;9.60;79.10;;;;;;4929366;29;20063;-51
2022/01/28 11:27:36;;;;;;;12.43;3.97;;;9.60;79.20;;;;;;4931481;29;20546;-50
2022/01/28 11:30:25;;;;;;;12.10;3.50;;;9.60;79.30;;;;;;4933046;29;20055;-57
2022/01/28 11:32:59;;;;;;;22.17;4.85;;;9.60;79.30;;;;;;4934658;29;20062;-61
2022/01/28 11:35:26;;;;;;;14.85;4.45;;;9.50;77.70;;;;;;4927078;29;20099;-59
2022/01/28 11:37:54;;;;;;;16.10;4.90;;;9.50;77.80;;;;;;4915689;29;20052;-61
2022/01/28 11:40:19;;;;;;;15.60;4.10;;;9.50;77.90;;;;;;4915376;29;20068;-61
2022/01/28 11:42:45;;;;;;;16.60;4.28;;;9.50;77.90;;;;;;4915852;29;20063;-61
2022/01/28 11:45:11;;;;;;;12.05;3.88;;;9.50;77.90;;;;;;4916094;29;20060;-59
2022/01/28 11:47:56;;;;;;;14.00;4.22;;;9.50;77.90;;;;;;4915166;29;20063;-59
2022/01/28 11:50:24;;;;;;;19.55;4.45;;;9.60;78.00;;;;;;4915251;29;20044;-59
2022/01/28 11:52:52;;;;;;;16.50;4.22;;;9.60;78.10;;;;;;4915285;29;20056;-60
2022/01/28 11:55:17;;;;;;;13.82;3.83;;;9.60;78.10;;;;;;4915234;29;20146;-60
2022/01/28 11:58:03;;;;;;;12.00;3.83;;;9.60;78.20;;;;;;4920934;28;20048;-60
2022/01/28 12:00:32;;;;;;;10.77;3.15;;;9.60;78.30;;;;;;4987010;28;20053;-59
2022/01/28 12:02:59;;;;;;;14.48;4.32;;;9.60;78.40;;;;;;5053219;28;20037;-60
2022/01/28 12:05:30;;;;;;;16.13;4.05;;;9.60;78.50;;;;;;5053853;28;20133;-60
2022/01/28 12:08:03;;;;;;;11.60;3.45;;;9.70;78.60;;;;;;5068864;28;20086;-59
2022/01/28 12:10:31;;;;;;;6.80;2.88;;;9.80;78.70;;;;;;5073665;28;20056;-59
2022/01/28 12:13:02;;;;;;;10.48;4.13;;;9.70;78.70;;;;;;5072874;28;20055;-60
2022/01/28 12:15:30;;;;;;;11.98;3.40;;;9.70;78.70;;;;;;5073260;28;20143;-60
2022/01/28 12:18:11;;;;;;;10.88;2.88;;;9.70;78.80;;;;;;5054761;28;20044;-60
2022/01/28 12:20:38;;;;;;;10.38;3.83;;;9.70;78.80;;;;;;5072997;28;20052;-59
2022/01/28 12:23:10;;;;;;;10.50;3.35;;;9.70;78.90;;;;;;5073026;28;20043;-59
2022/01/28 12:25:36;;;;;;;9.07;3.30;;;9.70;78.90;;;;;;5073603;28;20405;-60
2022/01/28 12:28:16;;;;;;;8.02;2.67;;;9.70;78.90;;;;;;5072187;28;20050;-59
2022/01/28 12:31:02;;;;;;;9.32;3.25;;;9.80;79.00;;;;;;5073393;28;20402;-60
2022/01/28 12:33:33;;;;;;;12.18;2.95;;;9.80;79.10;;;;;;5073047;28;20090;-61
2022/01/28 12:36:07;;;;;;;10.95;3.28;;;9.80;79.10;;;;;;5072879;28;20093;-60
2022/01/28 12:38:34;;;;;;;6.53;2.70;;;9.80;79.20;;;;;;5072876;28;20047;-60
2022/01/28 12:41:07;;;;;;;9.40;2.58;;;9.80;79.20;;;;;;5072230;28;20071;-60
2022/01/28 12:43:33;;;;;;;7.93;2.83;;;9.80;79.20;;;;;;5072904;28;20044;-61
2022/01/28 12:46:11;;;;;;;7.05;2.70;;;9.80;79.20;;;;;;5072446;28;20515;-59
2022/01/28 12:48:48;;;;;;;7.65;3.33;;;9.80;79.20;;;;;;5072444;28;20051;-59
2022/01/28 12:51:15;;;;;;;7.18;2.88;;;9.80;79.20;;;;;;5071975;28;20080;-60
2022/01/28 12:53:47;;;;;;;6.60;2.72;;;9.80;79.30;;;;;;5072644;28;20044;-60
2022/01/28 12:56:17;;;;;;;6.90;2.55;;;9.80;79.30;;;;;;5072476;28;20105;-59
2022/01/28 12:58:48;;;;;;;6.57;2.63;;;9.80;79.30;;;;;;5072592;28;20049;-59
2022/01/28 13:01:17;;;;;;;9.05;2.75;;;9.80;79.30;;;;;;5071969;28;20044;-59
2022/01/28 13:03:48;;;;;;;7.93;2.65;;;9.80;79.40;;;;;;5072404;28;20105;-59
2022/01/28 13:06:54;;;;;;;8.23;2.63;;;9.80;79.40;;;;;;5054676;28;20135;-59
2022/01/28 13:09:16;;;;;;;8.02;3.05;;;9.80;79.40;;;;;;5070730;28;20082;-60
2022/01/28 13:11:47;;;;;;;10.90;2.70;;;9.80;79.40;;;;;;5071482;28;20056;-60
2022/01/28 13:14:18;;;;;;;9.80;3.08;;;9.80;79.40;;;;;;5071947;28;20053;-59
2022/01/28 13:16:46;;;;;;;5.90;2.42;;;9.90;79.50;;;;;;5072517;28;20099;-61
2022/01/28 13:19:14;;;;;;;8.23;2.47;;;9.80;79.40;;;;;;5071581;28;20115;-60
2022/01/28 13:21:42;;;;;;;4.45;2.05;;;9.80;79.40;;;;;;5071823;28;20082;-61
2022/01/28 13:24:19;;;;;;;6.15;2.35;;;9.80;79.50;;;;;;5071530;28;20040;-60
2022/01/28 13:27:11;;;;;;;3.53;2.20;;;9.80;79.40;;;;;;5072384;28;20124;-61
2022/01/28 13:29:38;;;;;;;5.88;2.20;;;9.90;79.50;;;;;;5067979;28;20044;-61
2022/01/28 13:32:09;;;;;;;7.85;2.50;;;9.90;79.60;;;;;;5071307;28;20089;-60
2022/01/28 13:34:46;;;;;;;5.78;2.40;;;9.90;79.60;;;;;;5071690;28;20084;-60
2022/01/28 13:37:14;;;;;;;5.53;1.92;;;9.90;79.60;;;;;;5071501;28;20407;-58
2022/01/28 13:39:44;;;;;;;4.15;2.08;;;9.90;79.60;;;;;;5053993;28;20102;-59
2022/01/28 13:42:13;;;;;;;6.30;2.42;;;9.80;79.50;;;;;;5070981;28;20058;-59
2022/01/28 13:44:42;;;;;;;7.95;2.20;;;9.80;79.60;;;;;;5071634;28;20040;-59
2022/01/28 13:47:09;;;;;;;6.15;2.30;;;9.90;79.60;;;;;;5071302;28;20523;-59
2022/01/28 13:49:37;;;;;;;4.93;1.60;;;9.90;79.60;;;;;;5053946;28;20052;-60
2022/01/28 13:52:40;;;;;;;4.53;2.00;;;10.00;79.70;;;;;;5053613;28;20538;-59
2022/01/28 13:55:36;;;;;;;4.50;2.15;;;9.90;79.70;;;;;;5070359;28;20102;-60
2022/01/28 13:58:06;;;;;;;6.72;2.53;;;9.90;79.60;;;;;;5071246;28;20044;-60
2022/01/28 14:00:42;;;;;;;5.00;2.20;;;9.90;79.70;;;;;;5071638;28;20493;-59
2022/01/28 14:03:22;;;;;;;3.65;1.80;;;9.90;79.70;;;;;;5071287;28;20037;-60
2022/01/28 14:06:00;;;;;;;5.47;1.90;;;9.90;79.70;;;;;;5071033;28;20068;-60
2022/01/28 14:08:45;;;;;;;4.00;1.98;;;9.90;79.70;;;;;;5071388;28;20041;-59
2022/01/28 14:11:21;;;;;;;3.77;2.10;;;9.90;79.70;;;;;;5071157;28;20510;-60
2022/01/28 14:14:13;;;;;;;4.28;1.92;;;9.90;79.70;;;;;;5071597;28;20351;-59
2022/01/28 14:16:39;;;;;;;5.22;1.90;;;9.90;79.70;;;;;;5071216;28;20066;-59
2022/01/28 14:19:05;;;;;;;4.07;2.05;;;9.90;79.70;;;;;;5071197;28;20047;-60
2022/01/28 14:21:31;;;;;;;5.10;1.80;;;9.90;79.80;;;;;;5071301;28;20505;-59
2022/01/28 14:23:56;;;;;;;5.07;2.08;;;9.90;79.80;;;;;;5071589;28;20053;-60
2022/01/28 14:26:22;;;;;;;5.18;2.00;;;9.90;79.80;;;;;;5070654;28;20040;-59